KEUG

Eugene Airport

Airport
ICAO code
KEUG
Summary
ICAO Region
NAM
ICAO Territory
Location

Eugene, Oregon,

Elevation
374 ft
Coordinates
44° 7' 13" N , 123° 12' 40" W
KCC
Airport LOS
Parallel Runway Operation
Metar
Observation
KEUG 070754Z AUTO 17005KT 8SM CLR 12/11 A3014 RMK AO2 VIS 2 1/2 RNW 34 SLP205 T01170111 402170083
Station
Eugene, Mahlon Sweet Field
Date/Time
2022-10-07 07:54:00
Wind direction
170°
Wind speed
05 kts
Lowest cloud amount
n/a
Temperature
11.7°C
Dew point
11.1°C
Humidity
96%
Weather condition
n/a

Description

Eugene Airport, also known as Mahlon Sweet Field, is a public use airport located 11 km northwest of Eugene, in Lane County, Oregon.

Climatology

Marine West Coast climate zone (Köppen climate classification Cfb), with some Mediterranean characteristics. Temperatures can vary from cool to warm, with warm, dry summers and cool, wet winters. Spring and fall are also moist seasons, with light rain falling for long periods. Winter snowfall does occur, but it is sporadic and rarely accumulates in large amounts.

Airport map

Aerial View

SKYbrary Partners:

Safety knowledge contributed by: